WetterOnline ( http://www.wetteronline.de )

Wetter aktuell Inchenhofen

Aktuelles Wetter: Augsburg/Mühlhausen (477m)

6-stündlich | Neueste Meldungen
Ortszeit Temperatur Wetter
Mo, 18.06. 2:00 15.4° C bewölkt
So, 17.06. 20:00 19.7° C wolkig
So, 17.06. 14:00 21.2° C bedeckt
So, 17.06. 8:00 17.0° C bewölkt
So, 17.06. 2:00 11.9° C bewölkt
Sa, 16.06. 20:00 22.4° C wolkig
Sa, 16.06. 14:00 21.6° C bewölkt
Sa, 16.06. 8:00 14.6° C wolkenlos
Ortszeit Temperatur Wetter
Mo, 18.06. 5:30 15.1° C bedeckt
Mo, 18.06. 5:20 15.1° C bedeckt
Mo, 18.06. 5:10 15.1° C bedeckt
Mo, 18.06. 5:00 14.9° C bewölkt
Mo, 18.06. 4:50 14.9° C bewölkt
Mo, 18.06. 4:40 14.6° C bewölkt
Mo, 18.06. 4:30 15.0° C bedeckt
Mo, 18.06. 4:00 15.4° C bedeckt
Mo, 18.06. 3:30 15.8° C bewölkt
Mo, 18.06. 3:00 15.9° C bewölkt
Mo, 18.06. 2:30 16.1° C bedeckt
Ortszeit Relative Feuchte Sichtweite
Mo, 18.06. 2:00 90% 28 km
So, 17.06. 20:00 64% 40 km
So, 17.06. 14:00 60% 40 km
So, 17.06. 8:00 82% 16 km
So, 17.06. 2:00 91% 20 km
Sa, 16.06. 20:00 50% 40 km
Sa, 16.06. 14:00 49% 40 km
Sa, 16.06. 8:00 82% 10 km
Ortszeit Relative Feuchte Sichtweite
Mo, 18.06. 5:30 80% 30 km
Mo, 18.06. 5:20 80% -
Mo, 18.06. 5:10 81% -
Mo, 18.06. 5:00 83% 30 km
Mo, 18.06. 4:50 83% -
Mo, 18.06. 4:40 84% -
Mo, 18.06. 4:30 82% 30 km
Mo, 18.06. 4:00 80% 30 km
Mo, 18.06. 3:30 79% 30 km
Mo, 18.06. 3:00 79% 35 km
Mo, 18.06. 2:30 80% 30 km
Ortszeit Niederschlagsmenge Niederschlagsart
Mo, 18.06. 2:00 0.1 l/m2 in 6 Std. Regen
So, 17.06. 20:00 0.1 l/m2 in 12 Std. Regen
So, 17.06. 14:00 0.1 l/m2 in 6 Std. Regen
So, 17.06. 8:00 0.0 l/m2 in 12 Std. -
So, 17.06. 2:00 0.0 l/m2 in 6 Std. -
Sa, 16.06. 20:00 0.0 l/m2 in 12 Std. -
Sa, 16.06. 14:00 0.0 l/m2 in 6 Std. -
Sa, 16.06. 8:00 0.0 l/m2 in 12 Std. -
Ortszeit Niederschlagsmenge Niederschlagsart
Mo, 18.06. 5:30 0.0 l/m2 in 1 Std. -
Mo, 18.06. 5:20 keine Meldung -
Mo, 18.06. 5:10 keine Meldung -
Mo, 18.06. 5:00 0.0 l/m2 in 1 Std. -
Mo, 18.06. 4:50 keine Meldung -
Mo, 18.06. 4:40 keine Meldung -
Mo, 18.06. 4:30 0.0 l/m2 in 1 Std. -
Mo, 18.06. 4:00 0.0 l/m2 in 1 Std. -
Mo, 18.06. 3:30 0.0 l/m2 in 1 Std. -
Mo, 18.06. 3:00 0.0 l/m2 in 1 Std. -
Mo, 18.06. 2:30 0.0 l/m2 in 1 Std. -
Ortszeit Stärke Spitze Richtung
km/h Bft. km/h Grad Sektor
Mo, 18.06. 2:00 0 0 18 - -
So, 17.06. 20:00 11 2 29 350° N
So, 17.06. 14:00 6 1 24 360° N
So, 17.06. 8:00 4 1 11 230° SW
So, 17.06. 2:00 4 1 11 130° SO
Sa, 16.06. 20:00 4 1 25 60° NO
Sa, 16.06. 14:00 7 2 22 90° O
Sa, 16.06. 8:00 4 1 11 360° N
Ortszeit Stärke Spitze Richtung
km/h Bft. km/h Grad Sektor
Mo, 18.06. 5:30 9 2 15 310° NW
Mo, 18.06. 5:20 9 2 - 310° NW
Mo, 18.06. 5:10 9 2 - 310° NW
Mo, 18.06. 5:00 7 2 14 300° NW
Mo, 18.06. 4:50 7 2 - 300° NW
Mo, 18.06. 4:40 7 2 - 300° NW
Mo, 18.06. 4:30 7 2 14 300° NW
Mo, 18.06. 4:00 9 2 13 310° NW
Mo, 18.06. 3:30 7 2 14 320° NW
Mo, 18.06. 3:00 4 1 7 310° NW
Mo, 18.06. 2:30 6 1 7 290° W
Ortszeit Untergrenze Bedeckung Gattung
total tief tief mittel hoch
Mo, 18.06. 2:00 1500 m 8/8 6/8 - - -
So, 17.06. 20:00 1800 m 8/8 1/8 - - -
So, 17.06. 14:00 1110 m 8/8 8/8 - - -
So, 17.06. 8:00 1800 m 7/8 7/8 - - -
So, 17.06. 2:00 2400 m 8/8 5/8 - - -
Sa, 16.06. 20:00 2100 m 8/8 2/8 - - -
Sa, 16.06. 14:00 1800 m 7/8 7/8 - - -
Sa, 16.06. 8:00 - 0/8 0/8 - - -
Ortszeit Bedeckungsgrad in Achtel und Wolkenuntergrenze
Mo, 18.06. 5:30 8(1500m)
Mo, 18.06. 5:20 8(1500m)
Mo, 18.06. 5:10 8(1500m)
Mo, 18.06. 5:00 7(1500m) 7(3600m)
Mo, 18.06. 4:50 7(1500m) 7(3600m)
Mo, 18.06. 4:40 7(1500m) 7(3300m)
Mo, 18.06. 4:30 8(1500m) 8(3600m)
Mo, 18.06. 4:00 3(1500m) 5(1800m) 8(2400m)
Mo, 18.06. 3:30 7(1800m) 7(2400m) 8(3600m)
Mo, 18.06. 3:00 4(1500m) 7(2100m) 8(3600m)
Mo, 18.06. 2:30 8(1500m)
Ortszeit Luftdruck NN (hPa) Tendenz (hPa in 3 Std.)
Mo, 18.06. 2:00 1021 + 0,9
So, 17.06. 20:00 1017 + 0,9
So, 17.06. 14:00 1017 - 0,4
So, 17.06. 8:00 1017 + 1,1
So, 17.06. 2:00 1017 + 0,3
Sa, 16.06. 20:00 1014 + 0,1
Sa, 16.06. 14:00 1015 - 0,7
Sa, 16.06. 8:00 1017 + 0,1
Ortszeit Luftdruck NN (hPa) Tendenz (hPa in 3 Std.)
Mo, 18.06. 5:30 1022 + 0,5
Mo, 18.06. 5:20 1022 keine Meldung
Mo, 18.06. 5:10 1022 keine Meldung
Mo, 18.06. 5:00 1022 + 0,3
Mo, 18.06. 4:50 1022 keine Meldung
Mo, 18.06. 4:40 1022 keine Meldung
Mo, 18.06. 4:30 1021 + 0,2
Mo, 18.06. 4:00 1021 + 0,4
Mo, 18.06. 3:30 1021 + 0,5
Mo, 18.06. 3:00 1021 + 0,6
Mo, 18.06. 2:30 1021 + 0,8
Ortszeit Schneehöhe (cm)
Mo, 18.06. 2:00 -
So, 17.06. 20:00 -
So, 17.06. 14:00 -
So, 17.06. 8:00 -
So, 17.06. 2:00 -
Sa, 16.06. 20:00 -
Sa, 16.06. 14:00 -
Sa, 16.06. 8:00 -
Ortszeit Schneehöhe (cm)
Mo, 18.06. 5:30 -
Mo, 18.06. 5:20 -
Mo, 18.06. 5:10 -
Mo, 18.06. 5:00 -
Mo, 18.06. 4:50 -
Mo, 18.06. 4:40 -
Mo, 18.06. 4:30 -
Mo, 18.06. 4:00 -
Mo, 18.06. 3:30 -
Mo, 18.06. 3:00 -
Mo, 18.06. 2:30 -
Link zu dieser Seite / Seite empfehlen

Das Wetter in ...